• Join FlightAware (Why Join?)
  • Login
  • US Flag 
07:28PM EDT


 

Airport Tracker/Info


-or-


 

Live Flight TrackerFlight Track Log ✈ N182HP ✈ 14-Jul-2014 ✈ 1I5 - KMTN

Flight Track Log - Related Links

Times and Time Zones

All times are in EDT time to prevent confusion due to time zone crossing. See the N182HP flight status page for this flight to view local times or setup timezone preferences in your user account.

Time Position Orientation Groundspeed Altitude Reporting Facility
EDT Latitude Longitude Course Direction KTS MPH feet Rate Location/Type
10:03AM 42.2700 -74.0928 227° Southwest 71 82 4,600  Level Boston Center
10:04AM 42.2586 -74.1061 221° Southwest 73 84 5,200 840 Climbing Boston Center
10:04AM 42.2556 -74.1111 230° Southwest 76 87 5,400 780 Climbing Boston Center
10:05AM 42.2417 -74.1231 212° Southwest 75 86 6,000 540 Climbing Boston Center
10:06AM 42.2269 -74.1431 225° Southwest 75 86 6,500 240 Climbing Boston Center
10:07AM 42.2008 -74.1689 216° Southwest 107 123 6,500  Level Boston Center
10:08AM 42.1722 -74.1917 211° Southwest 116 133 6,500  Level Boston Center
10:09AM 42.1428 -74.2158 211° Southwest 120 138 6,500  Level Boston Center
10:10AM 42.1131 -74.2400 211° Southwest 117 135 6,500  Level Boston Center
10:11AM 42.0844 -74.2636 211° Southwest 118 136 6,500  Level Boston Center
10:12AM 42.0575 -74.2850 211° Southwest 117 135 6,500  Level Boston Center
10:13AM 42.0283 -74.3097 212° Southwest 116 133 6,500  Level Boston Center
10:14AM 42.0019 -74.3308 211° Southwest 115 132 6,500  Level Boston Center
10:15AM 41.9753 -74.3528 211° Southwest 114 131 6,500  Level Boston Center
10:16AM 41.9467 -74.3756 211° Southwest 114 131 6,500  Level Boston Center
10:17AM 41.9206 -74.3972 212° Southwest 112 129 6,500  Level Boston Center
10:18AM 41.8919 -74.4214 212° Southwest 113 130 6,500  Level Boston Center
10:19AM 41.8642 -74.4433 210° Southwest 113 130 6,500  Level Boston Center
10:20AM 41.8367 -74.4661 212° Southwest 114 131 6,500  Level Boston Center
10:21AM 41.8072 -74.4906 212° Southwest 115 132 6,500  Level Boston Center
10:22AM 41.7789 -74.5133 211° Southwest 116 133 6,500  Level Boston Center
10:23AM 41.7506 -74.5369 212° Southwest 118 136 6,500  Level Boston Center
10:24AM 41.7203 -74.5603 210° Southwest 118 136 6,500  Level Boston Center
10:25AM 41.6925 -74.5833 212° Southwest 118 136 6,500  Level Boston Center
10:26AM 41.6628 -74.6069 211° Southwest 117 135 6,500  Level Boston Center
10:27AM 41.6353 -74.6292 211° Southwest 117 135 6,500  Level Boston Center
10:28AM 41.6075 -74.6517 211° Southwest 117 135 6,500  Level Boston Center
10:29AM 41.5789 -74.6747 211° Southwest 117 135 6,500  Level Boston Center
10:30AM 41.5514 -74.6969 211° Southwest 116 133 6,500  Level Boston Center
10:31AM 41.5244 -74.7189 211° Southwest 116 133 6,500  Level Boston Center
10:32AM 41.4961 -74.7408 210° Southwest 114 131 6,500  Level Boston Center
10:34AM 41.4692 -74.7625 211° Southwest 114 131 6,500  Level Boston Center
10:35AM 41.4422 -74.7850 212° Southwest 114 131 6,500  Level Boston Center
10:36AM 41.4128 -74.8078 210° Southwest 114 131 6,500  Level Boston Center
10:37AM 41.3861 -74.8294 211° Southwest 114 131 6,500  Level Boston Center
10:38AM 41.3569 -74.8528 211° Southwest 114 131 6,500  Level Boston Center
10:39AM 41.3294 -74.8744 211° Southwest 114 131 6,500  Level Boston Center
10:40AM 41.3025 -74.8956 210° Southwest 114 131 6,500  Level Boston Center
10:41AM 41.2719 -74.9256 216° Southwest 121 139 6,500  Level New York Center
10:42AM 41.2483 -74.9433 210° Southwest 116 133 6,500  Level New York Center
10:43AM 41.2203 -74.9664 212° Southwest 116 133 6,500  Level New York Center
10:44AM 41.1903 -74.9894 210° Southwest 116 133 6,500  Level New York Center
10:45AM 41.1625 -75.0097 209° Southwest 116 133 6,500  Level New York Center
10:46AM 41.1369 -75.0300 211° Southwest 116 133 6,500  Level New York Center
10:46AM 41.1242 -75.0375 204° Southwest 111 128 6,500  Level New York Center
10:47AM 41.1133 -75.0506 222° Southwest 121 139 6,500  Level New York Center
10:47AM 41.0919 -75.0631 204° Southwest 109 125 6,500  Level New York Center
10:48AM 41.0875 -75.0683 222° Southwest 121 139 6,500  Level New York Center
10:48AM 41.0681 -75.0864 215° Southwest 109 125 6,500  Level New York Center
10:49AM 41.0594 -75.0942 214° Southwest 121 139 6,500  Level New York Center
10:49AM 41.0425 -75.1039 203° Southwest 107 123 6,500  Level New York Center
10:50AM 41.0339 -75.1117 214° Southwest 121 139 6,500  Level New York Center
10:50AM 41.0147 -75.1242 206° Southwest 107 123 6,500  Level New York Center
10:51AM 41.0039 -75.1344 216° Southwest 121 139 6,500  Level New York Center
10:51AM 40.9908 -75.1475 217° Southwest 107 123 6,500  Level New York Center
10:52AM 40.9803 -75.1522 199° South 121 139 6,500  Level New York Center
10:52AM 40.9631 -75.1650 209° Southwest 108 124 6,500  Level New York Center
10:53AM 40.9567 -75.1700 211° Southwest 121 139 6,500  Level New York Center
10:53AM 40.9375 -75.1853 211° Southwest 103 119 6,500  Level New York Center
10:54AM 40.9311 -75.1903 211° Southwest 121 139 6,500  Level New York Center
10:54AM 40.9139 -75.2056 214° Southwest 106 122 6,500  Level New York Center
10:55AM 40.9031 -75.2131 208° Southwest 121 139 6,500  Level New York Center
10:55AM 40.8858 -75.2258 209° Southwest 105 121 6,500  Level New York Center
10:56AM 40.8794 -75.2308 211° Southwest 114 131 6,500  Level New York Center
10:56AM 40.8622 -75.2461 214° Southwest 106 122 6,500  Level New York Center
10:57AM 40.8536 -75.2511 204° Southwest 114 131 6,500  Level New York Center
10:57AM 40.8408 -75.2639 217° Southwest 105 121 6,500  Level New York Center
10:58AM 40.8300 -75.2686 198° South 109 125 6,500  Level New York Center
10:58AM 40.8131 -75.2814 210° Southwest 104 120 6,500  Level New York Center
10:59AM 40.8044 -75.2889 213° Southwest 109 125 6,500  Level New York Center
10:59AM 40.7869 -75.3042 213° Southwest 104 120 6,500  Level New York Center
11:00AM 40.7786 -75.3092 204° Southwest 109 125 6,500  Level New York Center
11:01AM 40.7592 -75.3244 211° Southwest 104 120 6,500  Level New York Center
11:01AM 40.7528 -75.3294 211° Southwest 109 125 6,500 -480 Level New York Center
11:01AM 40.7356 -75.3447 214° Southwest 114 131 6,100 -600 Descending New York Center
11:03AM 40.7011 -75.3725 211° Southwest 124 143 5,500 -540 Descending New York Center
11:04AM 40.6733 -75.3897 205° Southwest 122 140 5,000 -480 Descending New York Center
11:05AM 40.6431 -75.4150 212° Southwest 119 137 4,600 -300 Descending New York Center
11:06AM 40.6153 -75.4378 212° Southwest 113 130 4,500 -60 Descending New York Center
11:07AM 40.5894 -75.4578 210° Southwest 106 122 4,500  Level New York Center
11:08AM 40.5658 -75.4753 209° Southwest 107 123 4,500  Level New York Center
11:09AM 40.5356 -75.4978 209° Southwest 109 125 4,500  Level New York Center
11:10AM 40.5097 -75.5233 217° Southwest 109 125 4,500  Level New York Center
11:11AM 40.4842 -75.5381 204° Southwest 108 124 4,500  Level New York Center
11:12AM 40.4539 -75.5606 209° Southwest 110 127 4,500  Level New York Center
11:13AM 40.4236 -75.5883 215° Southwest 111 128 4,500  Level New York Center
11:14AM 40.4000 -75.6031 205° Southwest 111 128 4,500  Level New York Center
11:15AM 40.3742 -75.6258 214° Southwest 109 125 4,500  Level New York Center
11:17AM 40.3231 -75.6413 211° Southwest  Level FlightAware Approximate
11:24AM 40.1309 -75.7921 212° Southwest  Level FlightAware Approximate
11:25AM 40.1035 -75.8139 211° Southwest  Level FlightAware Approximate
11:26AM 40.0762 -75.8358 211° Southwest  Level FlightAware Approximate
11:27AM 40.0489 -75.8576 211° Southwest  Level FlightAware Approximate
11:28AM 40.0216 -75.8794 211° Southwest  Level FlightAware Approximate
11:29AM 39.9939 -75.9002 210° Southwest  Level FlightAware Approximate
11:30AM 39.9660 -75.9208 210° Southwest  Level FlightAware Approximate
11:31AM 39.9382 -75.9414 210° Southwest  Level FlightAware Approximate
11:32AM 39.9103 -75.9620 210° Southwest  Level FlightAware Approximate
11:33AM 39.8825 -75.9825 210° Southwest  Level FlightAware Approximate
11:34AM 39.8546 -76.0031 210° Southwest  Level FlightAware Approximate
11:35AM 39.8267 -76.0236 209° Southwest  Level FlightAware Approximate
11:36AM 39.7989 -76.0441 209° Southwest  Level FlightAware Approximate
11:37AM 39.7710 -76.0646 209° Southwest  Level FlightAware Approximate
11:38AM 39.7431 -76.0851 209° Southwest  Level FlightAware Approximate
11:39AM 39.7152 -76.1055 209° Southwest  Level FlightAware Approximate
11:40AM 39.6876 -76.1266 212° Southwest  Level FlightAware Approximate
11:41AM 39.6604 -76.1484 212° Southwest  Level FlightAware Approximate
11:42AM 39.6331 -76.1702 212° Southwest  Level FlightAware Approximate
11:43AM 39.6059 -76.1920 212° Southwest  Level FlightAware Approximate
11:44AM 39.5786 -76.2138 212° Southwest  Level FlightAware Approximate
11:45AM 39.5514 -76.2356 212° Southwest  Level FlightAware Approximate
11:46AM 39.5225 -76.2500 180° South  Level FlightAware Approximate
11:47AM 39.4960 -76.2707 218° Southwest  Level FlightAware Approximate
11:48AM 39.4706 -76.2961 218° Southwest  Level FlightAware Approximate
11:49AM 39.4426 -76.3160 207° Southwest  Level FlightAware Approximate
11:50AM 39.4141 -76.3346 201° Southwest  Level FlightAware Approximate
11:51AM 39.3842 -76.3496 201° Southwest  Level FlightAware Approximate
11:52AM 39.3564 -76.3702 210° Southwest  Level FlightAware Approximate
11:53AM 39.3288 -76.3910 210° Southwest  Level FlightAware Approximate
11:54AM 39.3257 -76.4138 210° Southwest  Level Estimated
11:55AM 39.3257 -76.4138 130° Southeast  Level Estimated
11:56AM 39.3257 -76.4138 210° Southwest  Level Estimated
11:57AM 39.3257 -76.4138 130° Southeast  Level Estimated
11:58AM 39.3257 -76.4138 130° Southeast  Level Estimated
11:59AM 39.3257 -76.4138 210° Southwest  Level Estimated
12:00PM 39.3257 -76.4138 130° Southeast  Level Estimated
12:01PM 39.3257 -76.4138 130° Southeast  Level Estimated
12:02PM 39.3257 -76.4138 210° Southwest  Level Estimated
12:03PM 39.3257 -76.4138 130° Southeast  Level Estimated
12:04PM 39.3257 -76.4138 130° Southeast  Level Estimated
12:05PM 39.3257 -76.4138 210° Southwest  Level Estimated
12:06PM 39.3257 -76.4138 130° Southeast  Level Estimated
12:07PM 39.3257 -76.4138 130° Southeast  Level Estimated
12:08PM 39.3257 -76.4138 210° Southwest  Level Estimated